sensor_id;sensor_type;location;lat;lon;timestamp;P1;durP1;ratioP1;P2;durP2;ratioP2
2940;SDS011;1480;51.456;6.670;2022-07-09T00:02:05;2.63;;;2.10;;
2940;SDS011;1480;51.456;6.670;2022-07-09T00:04:32;7.33;;;3.10;;
2940;SDS011;1480;51.456;6.670;2022-07-09T00:06:59;4.10;;;2.63;;
2940;SDS011;1480;51.456;6.670;2022-07-09T00:09:27;3.50;;;2.70;;
2940;SDS011;1480;51.456;6.670;2022-07-09T00:11:55;3.57;;;2.57;;
2940;SDS011;1480;51.456;6.670;2022-07-09T00:14:22;4.93;;;2.60;;
2940;SDS011;1480;51.456;6.670;2022-07-09T00:16:50;4.10;;;2.70;;
2940;SDS011;1480;51.456;6.670;2022-07-09T00:19:17;4.60;;;2.90;;
2940;SDS011;1480;51.456;6.670;2022-07-09T00:21:44;3.07;;;2.47;;
2940;SDS011;1480;51.456;6.670;2022-07-09T00:24:10;3.90;;;2.30;;
2940;SDS011;1480;51.456;6.670;2022-07-09T00:26:38;3.50;;;2.77;;
2940;SDS011;1480;51.456;6.670;2022-07-09T00:29:06;3.43;;;2.93;;
2940;SDS011;1480;51.456;6.670;2022-07-09T00:31:33;5.63;;;3.20;;
2940;SDS011;1480;51.456;6.670;2022-07-09T00:34:00;5.93;;;2.60;;
2940;SDS011;1480;51.456;6.670;2022-07-09T00:36:27;4.93;;;2.83;;
2940;SDS011;1480;51.456;6.670;2022-07-09T00:38:54;4.70;;;3.60;;
2940;SDS011;1480;51.456;6.670;2022-07-09T00:41:21;4.70;;;3.30;;
2940;SDS011;1480;51.456;6.670;2022-07-09T00:43:49;5.40;;;3.47;;
2940;SDS011;1480;51.456;6.670;2022-07-09T00:46:18;6.30;;;3.60;;
2940;SDS011;1480;51.456;6.670;2022-07-09T00:48:45;5.20;;;3.00;;
2940;SDS011;1480;51.456;6.670;2022-07-09T00:51:12;5.80;;;3.63;;
2940;SDS011;1480;51.456;6.670;2022-07-09T00:53:43;4.83;;;3.60;;
2940;SDS011;1480;51.456;6.670;2022-07-09T00:56:11;8.97;;;3.70;;
2940;SDS011;1480;51.456;6.670;2022-07-09T00:58:42;5.43;;;3.80;;
2940;SDS011;1480;51.456;6.670;2022-07-09T01:01:11;5.03;;;4.20;;
2940;SDS011;1480;51.456;6.670;2022-07-09T01:03:40;10.63;;;4.47;;
2940;SDS011;1480;51.456;6.670;2022-07-09T01:06:07;6.77;;;3.60;;
2940;SDS011;1480;51.456;6.670;2022-07-09T01:08:34;5.77;;;4.60;;
2940;SDS011;1480;51.456;6.670;2022-07-09T01:11:01;7.80;;;3.90;;
2940;SDS011;1480;51.456;6.670;2022-07-09T01:13:28;5.10;;;3.60;;
2940;SDS011;1480;51.456;6.670;2022-07-09T01:15:55;7.40;;;4.70;;
2940;SDS011;1480;51.456;6.670;2022-07-09T01:18:22;5.10;;;3.50;;
2940;SDS011;1480;51.456;6.670;2022-07-09T01:20:51;7.00;;;3.90;;
2940;SDS011;1480;51.456;6.670;2022-07-09T01:23:18;6.50;;;4.40;;
2940;SDS011;1480;51.456;6.670;2022-07-09T01:25:45;5.50;;;4.50;;
2940;SDS011;1480;51.456;6.670;2022-07-09T01:28:13;7.30;;;4.87;;
2940;SDS011;1480;51.456;6.670;2022-07-09T01:30:40;6.73;;;4.30;;
2940;SDS011;1480;51.456;6.670;2022-07-09T01:33:07;7.00;;;4.80;;
2940;SDS011;1480;51.456;6.670;2022-07-09T01:35:34;5.70;;;4.40;;
2940;SDS011;1480;51.456;6.670;2022-07-09T01:38:03;6.53;;;5.20;;
2940;SDS011;1480;51.456;6.670;2022-07-09T01:40:30;5.30;;;4.17;;
2940;SDS011;1480;51.456;6.670;2022-07-09T01:42:57;5.60;;;4.17;;
2940;SDS011;1480;51.456;6.670;2022-07-09T01:45:24;6.67;;;4.40;;
2940;SDS011;1480;51.456;6.670;2022-07-09T01:47:51;6.13;;;4.87;;
2940;SDS011;1480;51.456;6.670;2022-07-09T01:50:18;7.83;;;5.50;;
2940;SDS011;1480;51.456;6.670;2022-07-09T01:52:45;6.53;;;4.67;;
2940;SDS011;1480;51.456;6.670;2022-07-09T01:55:14;4.73;;;4.33;;
2940;SDS011;1480;51.456;6.670;2022-07-09T01:57:41;8.07;;;5.53;;
2940;SDS011;1480;51.456;6.670;2022-07-09T02:00:08;10.60;;;4.57;;
2940;SDS011;1480;51.456;6.670;2022-07-09T02:02:39;6.60;;;4.67;;
2940;SDS011;1480;51.456;6.670;2022-07-09T02:05:06;6.20;;;4.00;;
2940;SDS011;1480;51.456;6.670;2022-07-09T02:07:33;6.50;;;5.10;;
2940;SDS011;1480;51.456;6.670;2022-07-09T02:10:00;5.03;;;4.47;;
2940;SDS011;1480;51.456;6.670;2022-07-09T02:12:29;6.20;;;4.37;;
2940;SDS011;1480;51.456;6.670;2022-07-09T02:14:56;6.50;;;5.40;;
2940;SDS011;1480;51.456;6.670;2022-07-09T02:17:23;5.50;;;4.53;;
2940;SDS011;1480;51.456;6.670;2022-07-09T02:19:50;7.60;;;5.00;;
2940;SDS011;1480;51.456;6.670;2022-07-09T02:22:17;7.73;;;4.70;;
2940;SDS011;1480;51.456;6.670;2022-07-09T02:24:44;6.27;;;5.10;;
2940;SDS011;1480;51.456;6.670;2022-07-09T02:27:11;8.40;;;5.43;;
2940;SDS011;1480;51.456;6.670;2022-07-09T02:29:40;8.50;;;5.90;;
2940;SDS011;1480;51.456;6.670;2022-07-09T02:32:07;8.17;;;4.87;;
2940;SDS011;1480;51.456;6.670;2022-07-09T02:34:35;8.40;;;5.43;;
2940;SDS011;1480;51.456;6.670;2022-07-09T02:37:03;9.23;;;5.50;;
2940;SDS011;1480;51.456;6.670;2022-07-09T02:39:30;9.27;;;5.00;;
2940;SDS011;1480;51.456;6.670;2022-07-09T02:41:57;6.83;;;5.00;;
2940;SDS011;1480;51.456;6.670;2022-07-09T02:44:24;5.77;;;4.43;;
2940;SDS011;1480;51.456;6.670;2022-07-09T02:46:53;5.80;;;5.30;;
2940;SDS011;1480;51.456;6.670;2022-07-09T02:49:20;8.03;;;5.63;;
2940;SDS011;1480;51.456;6.670;2022-07-09T02:51:48;9.20;;;6.60;;
2940;SDS011;1480;51.456;6.670;2022-07-09T02:54:17;8.47;;;6.40;;
2940;SDS011;1480;51.456;6.670;2022-07-09T02:56:44;8.33;;;6.33;;
2940;SDS011;1480;51.456;6.670;2022-07-09T02:59:11;10.00;;;6.43;;
2940;SDS011;1480;51.456;6.670;2022-07-09T03:01:38;8.17;;;6.50;;
2940;SDS011;1480;51.456;6.670;2022-07-09T03:04:07;7.30;;;6.37;;
2940;SDS011;1480;51.456;6.670;2022-07-09T03:06:34;7.60;;;6.57;;
2940;SDS011;1480;51.456;6.670;2022-07-09T03:09:01;8.00;;;7.10;;
2940;SDS011;1480;51.456;6.670;2022-07-09T03:11:28;8.93;;;6.07;;
2940;SDS011;1480;51.456;6.670;2022-07-09T03:13:55;7.20;;;6.43;;
2940;SDS011;1480;51.456;6.670;2022-07-09T03:16:22;10.30;;;6.87;;
2940;SDS011;1480;51.456;6.670;2022-07-09T03:18:49;8.53;;;7.13;;
2940;SDS011;1480;51.456;6.670;2022-07-09T03:21:18;8.27;;;6.70;;
2940;SDS011;1480;51.456;6.670;2022-07-09T03:23:45;9.80;;;7.27;;
2940;SDS011;1480;51.456;6.670;2022-07-09T03:26:12;9.33;;;7.00;;
2940;SDS011;1480;51.456;6.670;2022-07-09T03:28:41;8.03;;;7.17;;
2940;SDS011;1480;51.456;6.670;2022-07-09T03:31:08;8.50;;;5.93;;
2940;SDS011;1480;51.456;6.670;2022-07-09T03:33:35;7.60;;;6.33;;
2940;SDS011;1480;51.456;6.670;2022-07-09T03:36:03;7.07;;;6.37;;
2940;SDS011;1480;51.456;6.670;2022-07-09T03:38:31;12.33;;;7.83;;
2940;SDS011;1480;51.456;6.670;2022-07-09T03:41:00;7.97;;;6.07;;
2940;SDS011;1480;51.456;6.670;2022-07-09T03:43:27;7.30;;;6.10;;
2940;SDS011;1480;51.456;6.670;2022-07-09T03:45:54;7.60;;;6.83;;
2940;SDS011;1480;51.456;6.670;2022-07-09T03:48:21;8.23;;;6.83;;
2940;SDS011;1480;51.456;6.670;2022-07-09T03:50:48;12.07;;;7.73;;
2940;SDS011;1480;51.456;6.670;2022-07-09T03:53:15;8.70;;;7.80;;
2940;SDS011;1480;51.456;6.670;2022-07-09T03:55:43;9.57;;;8.57;;
2940;SDS011;1480;51.456;6.670;2022-07-09T03:58:10;7.93;;;6.77;;
2940;SDS011;1480;51.456;6.670;2022-07-09T04:00:37;9.60;;;8.07;;
2940;SDS011;1480;51.456;6.670;2022-07-09T04:03:04;10.87;;;7.83;;
2940;SDS011;1480;51.456;6.670;2022-07-09T04:05:31;10.80;;;8.03;;
2940;SDS011;1480;51.456;6.670;2022-07-09T04:07:58;8.13;;;7.33;;
2940;SDS011;1480;51.456;6.670;2022-07-09T04:10:25;9.10;;;7.43;;
2940;SDS011;1480;51.456;6.670;2022-07-09T04:12:54;9.03;;;8.23;;
2940;SDS011;1480;51.456;6.670;2022-07-09T04:15:21;8.07;;;7.20;;
2940;SDS011;1480;51.456;6.670;2022-07-09T04:17:48;10.47;;;7.87;;
2940;SDS011;1480;51.456;6.670;2022-07-09T04:20:15;8.97;;;7.73;;
2940;SDS011;1480;51.456;6.670;2022-07-09T04:22:42;14.20;;;9.80;;
2940;SDS011;1480;51.456;6.670;2022-07-09T04:25:09;10.93;;;8.43;;
2940;SDS011;1480;51.456;6.670;2022-07-09T04:27:36;10.63;;;9.53;;
2940;SDS011;1480;51.456;6.670;2022-07-09T04:30:06;8.83;;;7.87;;
2940;SDS011;1480;51.456;6.670;2022-07-09T04:32:35;9.73;;;8.70;;
2940;SDS011;1480;51.456;6.670;2022-07-09T04:35:02;11.30;;;9.97;;
2940;SDS011;1480;51.456;6.670;2022-07-09T04:37:30;10.13;;;9.03;;
2940;SDS011;1480;51.456;6.670;2022-07-09T04:39:57;13.93;;;11.10;;
2940;SDS011;1480;51.456;6.670;2022-07-09T04:42:24;14.93;;;11.60;;
2940;SDS011;1480;51.456;6.670;2022-07-09T04:44:51;12.00;;;10.10;;
2940;SDS011;1480;51.456;6.670;2022-07-09T04:47:20;15.63;;;14.13;;
2940;SDS011;1480;51.456;6.670;2022-07-09T04:49:47;15.60;;;12.50;;
2940;SDS011;1480;51.456;6.670;2022-07-09T04:52:14;15.30;;;13.80;;
2940;SDS011;1480;51.456;6.670;2022-07-09T04:54:44;17.40;;;14.50;;
2940;SDS011;1480;51.456;6.670;2022-07-09T04:57:12;16.37;;;14.57;;
2940;SDS011;1480;51.456;6.670;2022-07-09T04:59:39;19.17;;;17.17;;
2940;SDS011;1480;51.456;6.670;2022-07-09T05:02:06;15.03;;;13.53;;
2940;SDS011;1480;51.456;6.670;2022-07-09T05:04:34;21.20;;;16.33;;
2940;SDS011;1480;51.456;6.670;2022-07-09T05:07:02;17.70;;;15.97;;
2940;SDS011;1480;51.456;6.670;2022-07-09T05:09:30;20.23;;;16.80;;
2940;SDS011;1480;51.456;6.670;2022-07-09T05:11:57;16.60;;;15.00;;
2940;SDS011;1480;51.456;6.670;2022-07-09T05:14:25;17.90;;;16.10;;
2940;SDS011;1480;51.456;6.670;2022-07-09T05:16:52;17.33;;;15.60;;
2940;SDS011;1480;51.456;6.670;2022-07-09T05:19:19;17.10;;;15.47;;
2940;SDS011;1480;51.456;6.670;2022-07-09T05:21:47;17.83;;;15.90;;
2940;SDS011;1480;51.456;6.670;2022-07-09T05:24:14;17.00;;;13.30;;
2940;SDS011;1480;51.456;6.670;2022-07-09T05:26:41;19.53;;;17.30;;
2940;SDS011;1480;51.456;6.670;2022-07-09T05:29:08;17.23;;;15.30;;
2940;SDS011;1480;51.456;6.670;2022-07-09T05:31:35;16.53;;;14.90;;
2940;SDS011;1480;51.456;6.670;2022-07-09T05:34:02;14.83;;;12.50;;
2940;SDS011;1480;51.456;6.670;2022-07-09T05:36:30;18.00;;;15.00;;
2940;SDS011;1480;51.456;6.670;2022-07-09T05:38:59;17.80;;;15.90;;
2940;SDS011;1480;51.456;6.670;2022-07-09T05:41:26;13.57;;;12.10;;
2940;SDS011;1480;51.456;6.670;2022-07-09T05:43:54;17.90;;;16.00;;
2940;SDS011;1480;51.456;6.670;2022-07-09T05:46:21;18.37;;;15.47;;
2940;SDS011;1480;51.456;6.670;2022-07-09T05:48:48;13.70;;;11.70;;
2940;SDS011;1480;51.456;6.670;2022-07-09T05:51:16;12.97;;;11.53;;
2940;SDS011;1480;51.456;6.670;2022-07-09T05:53:43;23.40;;;16.30;;
2940;SDS011;1480;51.456;6.670;2022-07-09T05:56:11;20.77;;;16.13;;
2940;SDS011;1480;51.456;6.670;2022-07-09T05:58:38;15.23;;;13.00;;
2940;SDS011;1480;51.456;6.670;2022-07-09T06:01:06;17.90;;;15.93;;
2940;SDS011;1480;51.456;6.670;2022-07-09T06:03:33;16.23;;;12.50;;
2940;SDS011;1480;51.456;6.670;2022-07-09T06:06:00;21.87;;;14.17;;
2940;SDS011;1480;51.456;6.670;2022-07-09T06:08:27;18.83;;;13.90;;
2940;SDS011;1480;51.456;6.670;2022-07-09T06:10:54;18.77;;;13.50;;
2940;SDS011;1480;51.456;6.670;2022-07-09T06:13:22;21.23;;;14.57;;
2940;SDS011;1480;51.456;6.670;2022-07-09T06:15:49;16.40;;;13.10;;
2940;SDS011;1480;51.456;6.670;2022-07-09T06:18:17;16.00;;;11.77;;
2940;SDS011;1480;51.456;6.670;2022-07-09T06:20:45;14.13;;;11.60;;
2940;SDS011;1480;51.456;6.670;2022-07-09T06:23:12;17.83;;;13.23;;
2940;SDS011;1480;51.456;6.670;2022-07-09T06:25:39;19.07;;;12.97;;
2940;SDS011;1480;51.456;6.670;2022-07-09T06:28:07;17.07;;;14.00;;
2940;SDS011;1480;51.456;6.670;2022-07-09T06:30:35;20.83;;;14.83;;
2940;SDS011;1480;51.456;6.670;2022-07-09T06:33:02;17.37;;;12.43;;
2940;SDS011;1480;51.456;6.670;2022-07-09T06:35:30;16.53;;;13.40;;
2940;SDS011;1480;51.456;6.670;2022-07-09T06:37:57;14.97;;;12.20;;
2940;SDS011;1480;51.456;6.670;2022-07-09T06:40:26;18.43;;;12.47;;
2940;SDS011;1480;51.456;6.670;2022-07-09T06:42:53;14.60;;;11.10;;
2940;SDS011;1480;51.456;6.670;2022-07-09T06:45:23;18.63;;;12.53;;
2940;SDS011;1480;51.456;6.670;2022-07-09T06:47:51;13.93;;;10.80;;
2940;SDS011;1480;51.456;6.670;2022-07-09T06:50:19;16.27;;;10.77;;
2940;SDS011;1480;51.456;6.670;2022-07-09T06:52:46;16.53;;;11.00;;
2940;SDS011;1480;51.456;6.670;2022-07-09T06:55:13;15.87;;;11.53;;
2940;SDS011;1480;51.456;6.670;2022-07-09T06:57:40;18.80;;;11.37;;
2940;SDS011;1480;51.456;6.670;2022-07-09T07:00:07;12.23;;;9.90;;
2940;SDS011;1480;51.456;6.670;2022-07-09T07:02:35;11.60;;;10.00;;
2940;SDS011;1480;51.456;6.670;2022-07-09T07:05:04;11.37;;;7.37;;
2940;SDS011;1480;51.456;6.670;2022-07-09T07:07:32;13.03;;;8.80;;
2940;SDS011;1480;51.456;6.670;2022-07-09T07:09:59;13.03;;;8.47;;
2940;SDS011;1480;51.456;6.670;2022-07-09T07:12:26;10.37;;;6.70;;
2940;SDS011;1480;51.456;6.670;2022-07-09T07:14:53;11.63;;;7.70;;
2940;SDS011;1480;51.456;6.670;2022-07-09T07:17:20;10.80;;;8.33;;
2940;SDS011;1480;51.456;6.670;2022-07-09T07:19:47;9.37;;;8.40;;
2940;SDS011;1480;51.456;6.670;2022-07-09T07:22:16;7.90;;;6.20;;
2940;SDS011;1480;51.456;6.670;2022-07-09T07:24:43;8.60;;;6.30;;
2940;SDS011;1480;51.456;6.670;2022-07-09T07:27:10;8.40;;;5.60;;
2940;SDS011;1480;51.456;6.670;2022-07-09T07:29:37;6.93;;;5.00;;
2940;SDS011;1480;51.456;6.670;2022-07-09T07:32:04;8.40;;;6.43;;
2940;SDS011;1480;51.456;6.670;2022-07-09T07:34:32;9.70;;;4.73;;
2940;SDS011;1480;51.456;6.670;2022-07-09T07:36:59;6.33;;;4.53;;
2940;SDS011;1480;51.456;6.670;2022-07-09T07:39:27;3.90;;;3.00;;
2940;SDS011;1480;51.456;6.670;2022-07-09T07:41:55;5.60;;;3.73;;
2940;SDS011;1480;51.456;6.670;2022-07-09T07:44:22;4.97;;;2.87;;
2940;SDS011;1480;51.456;6.670;2022-07-09T07:46:49;2.77;;;1.60;;
2940;SDS011;1480;51.456;6.670;2022-07-09T07:49:16;2.90;;;1.97;;
2940;SDS011;1480;51.456;6.670;2022-07-09T07:51:44;3.70;;;2.57;;
2940;SDS011;1480;51.456;6.670;2022-07-09T07:54:11;3.63;;;2.10;;
2940;SDS011;1480;51.456;6.670;2022-07-09T07:56:39;5.23;;;2.60;;
2940;SDS011;1480;51.456;6.670;2022-07-09T07:59:06;6.00;;;2.20;;
2940;SDS011;1480;51.456;6.670;2022-07-09T08:01:34;3.93;;;2.10;;
2940;SDS011;1480;51.456;6.670;2022-07-09T08:04:01;5.03;;;2.10;;
2940;SDS011;1480;51.456;6.670;2022-07-09T08:06:28;2.03;;;1.67;;
2940;SDS011;1480;51.456;6.670;2022-07-09T08:08:55;6.47;;;1.67;;
2940;SDS011;1480;51.456;6.670;2022-07-09T08:11:22;1.97;;;1.43;;
2940;SDS011;1480;51.456;6.670;2022-07-09T08:13:50;6.90;;;1.80;;
2940;SDS011;1480;51.456;6.670;2022-07-09T08:16:17;2.77;;;1.83;;
2940;SDS011;1480;51.456;6.670;2022-07-09T08:18:45;2.73;;;1.50;;
2940;SDS011;1480;51.456;6.670;2022-07-09T08:21:13;3.40;;;1.80;;
2940;SDS011;1480;51.456;6.670;2022-07-09T08:23:40;4.10;;;1.90;;
2940;SDS011;1480;51.456;6.670;2022-07-09T08:26:21;3.10;;;1.63;;
2940;SDS011;1480;51.456;6.670;2022-07-09T08:28:51;3.33;;;1.63;;
2940;SDS011;1480;51.456;6.670;2022-07-09T08:31:18;2.93;;;1.47;;
2940;SDS011;1480;51.456;6.670;2022-07-09T08:33:46;2.80;;;1.10;;
2940;SDS011;1480;51.456;6.670;2022-07-09T08:36:13;3.67;;;1.40;;
2940;SDS011;1480;51.456;6.670;2022-07-09T08:38:41;2.60;;;1.43;;
2940;SDS011;1480;51.456;6.670;2022-07-09T08:41:08;4.43;;;1.50;;
2940;SDS011;1480;51.456;6.670;2022-07-09T08:43:36;2.70;;;1.60;;
2940;SDS011;1480;51.456;6.670;2022-07-09T08:46:05;3.53;;;1.70;;
2940;SDS011;1480;51.456;6.670;2022-07-09T08:48:33;3.77;;;1.87;;
2940;SDS011;1480;51.456;6.670;2022-07-09T08:51:03;2.73;;;1.93;;
2940;SDS011;1480;51.456;6.670;2022-07-09T08:53:31;2.77;;;1.70;;
2940;SDS011;1480;51.456;6.670;2022-07-09T08:55:58;2.80;;;1.80;;
2940;SDS011;1480;51.456;6.670;2022-07-09T08:58:25;3.67;;;2.17;;
2940;SDS011;1480;51.456;6.670;2022-07-09T09:00:52;2.83;;;1.93;;
2940;SDS011;1480;51.456;6.670;2022-07-09T09:03:22;2.33;;;1.70;;
2940;SDS011;1480;51.456;6.670;2022-07-09T09:05:59;5.43;;;1.53;;
2940;SDS011;1480;51.456;6.670;2022-07-09T09:08:32;2.30;;;1.10;;
2940;SDS011;1480;51.456;6.670;2022-07-09T09:11:01;3.30;;;1.17;;
2940;SDS011;1480;51.456;6.670;2022-07-09T09:13:28;2.90;;;1.63;;
2940;SDS011;1480;51.456;6.670;2022-07-09T09:16:02;2.10;;;1.20;;
2940;SDS011;1480;51.456;6.670;2022-07-09T09:18:33;3.70;;;1.70;;
2940;SDS011;1480;51.456;6.670;2022-07-09T09:21:02;2.00;;;1.10;;
2940;SDS011;1480;51.456;6.670;2022-07-09T09:23:39;2.03;;;1.00;;
2940;SDS011;1480;51.456;6.670;2022-07-09T09:26:07;1.40;;;0.90;;
2940;SDS011;1480;51.456;6.670;2022-07-09T09:28:44;1.97;;;1.30;;
2940;SDS011;1480;51.456;6.670;2022-07-09T09:31:19;2.27;;;1.30;;
2940;SDS011;1480;51.456;6.670;2022-07-09T09:33:48;1.73;;;1.10;;
2940;SDS011;1480;51.456;6.670;2022-07-09T09:36:31;2.00;;;1.20;;
2940;SDS011;1480;51.456;6.670;2022-07-09T09:39:09;2.57;;;1.10;;
2940;SDS011;1480;51.456;6.670;2022-07-09T09:41:41;3.70;;;1.40;;
2940;SDS011;1480;51.456;6.670;2022-07-09T09:44:09;4.83;;;1.17;;
2940;SDS011;1480;51.456;6.670;2022-07-09T09:46:37;2.23;;;1.13;;
2940;SDS011;1480;51.456;6.670;2022-07-09T09:49:07;2.00;;;1.17;;
2940;SDS011;1480;51.456;6.670;2022-07-09T09:51:36;4.13;;;1.10;;
2940;SDS011;1480;51.456;6.670;2022-07-09T09:54:08;3.33;;;1.30;;
2940;SDS011;1480;51.456;6.670;2022-07-09T09:56:35;3.20;;;1.00;;
2940;SDS011;1480;51.456;6.670;2022-07-09T09:59:02;2.50;;;1.20;;
2940;SDS011;1480;51.456;6.670;2022-07-09T10:01:29;1.83;;;1.10;;
2940;SDS011;1480;51.456;6.670;2022-07-09T10:03:57;2.17;;;1.10;;
2940;SDS011;1480;51.456;6.670;2022-07-09T10:06:25;1.60;;;0.90;;
2940;SDS011;1480;51.456;6.670;2022-07-09T10:08:53;2.00;;;1.20;;
2940;SDS011;1480;51.456;6.670;2022-07-09T10:11:21;2.20;;;1.30;;
2940;SDS011;1480;51.456;6.670;2022-07-09T10:13:54;2.03;;;1.23;;
2940;SDS011;1480;51.456;6.670;2022-07-09T10:16:32;3.90;;;1.50;;
2940;SDS011;1480;51.456;6.670;2022-07-09T10:19:03;2.40;;;1.20;;
2940;SDS011;1480;51.456;6.670;2022-07-09T10:21:35;2.63;;;1.50;;
2940;SDS011;1480;51.456;6.670;2022-07-09T10:24:05;1.57;;;1.07;;
2940;SDS011;1480;51.456;6.670;2022-07-09T10:26:45;4.13;;;1.10;;
2940;SDS011;1480;51.456;6.670;2022-07-09T10:29:21;3.20;;;1.27;;
2940;SDS011;1480;51.456;6.670;2022-07-09T10:31:53;4.17;;;1.20;;
2940;SDS011;1480;51.456;6.670;2022-07-09T10:34:29;2.47;;;1.30;;
2940;SDS011;1480;51.456;6.670;2022-07-09T10:37:04;1.90;;;1.20;;
2940;SDS011;1480;51.456;6.670;2022-07-09T10:39:31;3.70;;;1.20;;
2940;SDS011;1480;51.456;6.670;2022-07-09T10:41:59;2.23;;;1.40;;
2940;SDS011;1480;51.456;6.670;2022-07-09T10:44:33;2.37;;;1.30;;
2940;SDS011;1480;51.456;6.670;2022-07-09T10:47:01;1.80;;;1.10;;
2940;SDS011;1480;51.456;6.670;2022-07-09T10:49:29;3.30;;;1.60;;
2940;SDS011;1480;51.456;6.670;2022-07-09T10:51:57;2.07;;;1.07;;
2940;SDS011;1480;51.456;6.670;2022-07-09T10:54:26;3.50;;;1.70;;
2940;SDS011;1480;51.456;6.670;2022-07-09T10:56:54;1.97;;;1.50;;
2940;SDS011;1480;51.456;6.670;2022-07-09T10:59:21;3.90;;;1.93;;
2940;SDS011;1480;51.456;6.670;2022-07-09T11:01:49;3.60;;;1.90;;
2940;SDS011;1480;51.456;6.670;2022-07-09T11:04:24;3.43;;;2.10;;
2940;SDS011;1480;51.456;6.670;2022-07-09T11:06:52;5.77;;;2.67;;
2940;SDS011;1480;51.456;6.670;2022-07-09T11:09:19;4.00;;;2.70;;
2940;SDS011;1480;51.456;6.670;2022-07-09T11:11:50;3.60;;;2.20;;
2940;SDS011;1480;51.456;6.670;2022-07-09T11:14:17;3.63;;;2.17;;
2940;SDS011;1480;51.456;6.670;2022-07-09T11:16:52;3.50;;;2.53;;
2940;SDS011;1480;51.456;6.670;2022-07-09T11:19:20;3.50;;;2.50;;
2940;SDS011;1480;51.456;6.670;2022-07-09T11:21:48;5.33;;;2.60;;
2940;SDS011;1480;51.456;6.670;2022-07-09T11:24:15;7.10;;;2.97;;
2940;SDS011;1480;51.456;6.670;2022-07-09T11:26:45;5.90;;;3.53;;
2940;SDS011;1480;51.456;6.670;2022-07-09T11:29:14;3.57;;;2.90;;
2940;SDS011;1480;51.456;6.670;2022-07-09T11:31:47;5.10;;;3.60;;
2940;SDS011;1480;51.456;6.670;2022-07-09T11:34:14;5.17;;;3.20;;
2940;SDS011;1480;51.456;6.670;2022-07-09T11:36:42;4.20;;;2.80;;
2940;SDS011;1480;51.456;6.670;2022-07-09T11:39:20;5.93;;;3.90;;
2940;SDS011;1480;51.456;6.670;2022-07-09T11:41:49;4.60;;;3.17;;
2940;SDS011;1480;51.456;6.670;2022-07-09T11:44:21;4.90;;;4.20;;
2940;SDS011;1480;51.456;6.670;2022-07-09T11:46:59;8.17;;;3.97;;
2940;SDS011;1480;51.456;6.670;2022-07-09T11:49:31;10.53;;;4.33;;
2940;SDS011;1480;51.456;6.670;2022-07-09T11:51:59;6.80;;;4.03;;
2940;SDS011;1480;51.456;6.670;2022-07-09T11:54:26;4.80;;;3.50;;
2940;SDS011;1480;51.456;6.670;2022-07-09T11:56:53;4.30;;;3.60;;
2940;SDS011;1480;51.456;6.670;2022-07-09T11:59:26;6.00;;;3.77;;
2940;SDS011;1480;51.456;6.670;2022-07-09T12:01:56;8.40;;;3.70;;
2940;SDS011;1480;51.456;6.670;2022-07-09T12:04:27;10.50;;;4.00;;
2940;SDS011;1480;51.456;6.670;2022-07-09T12:06:55;5.93;;;4.50;;
2940;SDS011;1480;51.456;6.670;2022-07-09T12:09:29;7.90;;;3.97;;
2940;SDS011;1480;51.456;6.670;2022-07-09T12:11:58;4.40;;;4.00;;
2940;SDS011;1480;51.456;6.670;2022-07-09T12:14:26;6.20;;;3.83;;
2940;SDS011;1480;51.456;6.670;2022-07-09T12:16:53;3.93;;;3.23;;
2940;SDS011;1480;51.456;6.670;2022-07-09T12:19:21;5.97;;;4.10;;
2940;SDS011;1480;51.456;6.670;2022-07-09T12:21:48;8.10;;;5.00;;
2940;SDS011;1480;51.456;6.670;2022-07-09T12:24:15;5.23;;;4.20;;
2940;SDS011;1480;51.456;6.670;2022-07-09T12:26:42;7.30;;;4.83;;
2940;SDS011;1480;51.456;6.670;2022-07-09T12:29:09;11.60;;;6.33;;
2940;SDS011;1480;51.456;6.670;2022-07-09T12:31:38;5.07;;;3.77;;
2940;SDS011;1480;51.456;6.670;2022-07-09T12:34:05;6.70;;;3.70;;
2940;SDS011;1480;51.456;6.670;2022-07-09T12:36:32;4.50;;;3.40;;
2940;SDS011;1480;51.456;6.670;2022-07-09T12:38:59;6.43;;;2.73;;
2940;SDS011;1480;51.456;6.670;2022-07-09T12:41:26;4.03;;;3.17;;
2940;SDS011;1480;51.456;6.670;2022-07-09T12:43:53;6.60;;;4.17;;
2940;SDS011;1480;51.456;6.670;2022-07-09T12:46:20;4.93;;;4.00;;
2940;SDS011;1480;51.456;6.670;2022-07-09T12:48:48;6.73;;;4.97;;
2940;SDS011;1480;51.456;6.670;2022-07-09T12:51:15;7.47;;;5.37;;
2940;SDS011;1480;51.456;6.670;2022-07-09T12:53:42;7.10;;;4.80;;
2940;SDS011;1480;51.456;6.670;2022-07-09T12:56:09;6.13;;;4.83;;
2940;SDS011;1480;51.456;6.670;2022-07-09T12:58:37;5.80;;;4.67;;
2940;SDS011;1480;51.456;6.670;2022-07-09T13:01:04;6.47;;;4.60;;
2940;SDS011;1480;51.456;6.670;2022-07-09T13:03:32;6.50;;;4.90;;
2940;SDS011;1480;51.456;6.670;2022-07-09T13:06:00;6.50;;;4.60;;
2940;SDS011;1480;51.456;6.670;2022-07-09T13:08:28;5.90;;;4.40;;
2940;SDS011;1480;51.456;6.670;2022-07-09T13:10:55;54.37;;;10.73;;
2940;SDS011;1480;51.456;6.670;2022-07-09T13:13:22;10.17;;;5.07;;
2940;SDS011;1480;51.456;6.670;2022-07-09T13:15:49;6.87;;;4.10;;
2940;SDS011;1480;51.456;6.670;2022-07-09T13:18:17;9.23;;;4.13;;
2940;SDS011;1480;51.456;6.670;2022-07-09T13:20:44;7.00;;;4.33;;
2940;SDS011;1480;51.456;6.670;2022-07-09T13:23:13;5.27;;;4.07;;
2940;SDS011;1480;51.456;6.670;2022-07-09T13:25:40;3.90;;;3.50;;
2940;SDS011;1480;51.456;6.670;2022-07-09T13:28:07;8.03;;;3.70;;
2940;SDS011;1480;51.456;6.670;2022-07-09T13:30:34;6.00;;;3.27;;
2940;SDS011;1480;51.456;6.670;2022-07-09T13:33:04;5.50;;;4.10;;
2940;SDS011;1480;51.456;6.670;2022-07-09T13:35:31;4.33;;;3.70;;
2940;SDS011;1480;51.456;6.670;2022-07-09T13:37:58;7.87;;;3.47;;
2940;SDS011;1480;51.456;6.670;2022-07-09T13:40:26;7.23;;;4.00;;
2940;SDS011;1480;51.456;6.670;2022-07-09T13:42:53;8.23;;;2.90;;
2940;SDS011;1480;51.456;6.670;2022-07-09T13:45:20;3.20;;;2.00;;
2940;SDS011;1480;51.456;6.670;2022-07-09T13:47:47;3.40;;;2.07;;
2940;SDS011;1480;51.456;6.670;2022-07-09T13:50:14;4.03;;;1.83;;
2940;SDS011;1480;51.456;6.670;2022-07-09T13:52:41;2.17;;;1.53;;
2940;SDS011;1480;51.456;6.670;2022-07-09T13:55:10;3.10;;;1.57;;
2940;SDS011;1480;51.456;6.670;2022-07-09T13:57:39;2.20;;;1.50;;
2940;SDS011;1480;51.456;6.670;2022-07-09T14:00:06;3.60;;;2.13;;
2940;SDS011;1480;51.456;6.670;2022-07-09T14:02:34;2.33;;;1.40;;
2940;SDS011;1480;51.456;6.670;2022-07-09T14:05:03;6.27;;;2.10;;
2940;SDS011;1480;51.456;6.670;2022-07-09T14:07:30;3.17;;;1.70;;
2940;SDS011;1480;51.456;6.670;2022-07-09T14:09:58;2.10;;;1.40;;
2940;SDS011;1480;51.456;6.670;2022-07-09T14:12:25;3.30;;;1.23;;
2940;SDS011;1480;51.456;6.670;2022-07-09T14:14:53;4.40;;;1.33;;
2940;SDS011;1480;51.456;6.670;2022-07-09T14:17:20;2.93;;;1.40;;
2940;SDS011;1480;51.456;6.670;2022-07-09T14:19:49;3.70;;;1.27;;
2940;SDS011;1480;51.456;6.670;2022-07-09T14:22:16;4.10;;;1.67;;
2940;SDS011;1480;51.456;6.670;2022-07-09T14:24:45;4.63;;;1.30;;
2940;SDS011;1480;51.456;6.670;2022-07-09T14:27:12;2.40;;;1.47;;
2940;SDS011;1480;51.456;6.670;2022-07-09T14:29:39;2.53;;;1.60;;
2940;SDS011;1480;51.456;6.670;2022-07-09T14:32:08;2.00;;;1.50;;
2940;SDS011;1480;51.456;6.670;2022-07-09T14:34:35;3.93;;;2.00;;
2940;SDS011;1480;51.456;6.670;2022-07-09T14:37:04;3.50;;;1.30;;
2940;SDS011;1480;51.456;6.670;2022-07-09T14:39:32;4.03;;;1.30;;
2940;SDS011;1480;51.456;6.670;2022-07-09T14:41:59;2.00;;;1.27;;
2940;SDS011;1480;51.456;6.670;2022-07-09T14:44:26;3.60;;;1.63;;
2940;SDS011;1480;51.456;6.670;2022-07-09T14:47:04;5.07;;;1.40;;
2940;SDS011;1480;51.456;6.670;2022-07-09T14:49:37;3.70;;;1.77;;
2940;SDS011;1480;51.456;6.670;2022-07-09T14:52:04;3.83;;;1.70;;
2940;SDS011;1480;51.456;6.670;2022-07-09T14:54:39;3.67;;;1.40;;
2940;SDS011;1480;51.456;6.670;2022-07-09T14:57:06;3.30;;;1.50;;
2940;SDS011;1480;51.456;6.670;2022-07-09T14:59:33;3.10;;;1.30;;
2940;SDS011;1480;51.456;6.670;2022-07-09T15:02:04;4.80;;;1.60;;
2940;SDS011;1480;51.456;6.670;2022-07-09T15:04:31;2.47;;;1.07;;
2940;SDS011;1480;51.456;6.670;2022-07-09T15:06:59;1.90;;;1.00;;
2940;SDS011;1480;51.456;6.670;2022-07-09T15:09:26;2.03;;;1.10;;
2940;SDS011;1480;51.456;6.670;2022-07-09T15:11:56;2.83;;;1.60;;
2940;SDS011;1480;51.456;6.670;2022-07-09T15:14:23;2.80;;;1.10;;
2940;SDS011;1480;51.456;6.670;2022-07-09T15:16:50;2.00;;;1.37;;